createdAt,value
2022-08-11T00:01:26.943Z,21234.72
2022-08-11T00:03:58.242Z,21218.44
2022-08-11T00:06:31.523Z,21263.19
2022-08-11T00:09:01.814Z,21250.97
2022-08-11T00:11:41.055Z,21222.53
2022-08-11T00:14:18.703Z,21240.81
2022-08-11T00:16:57.778Z,21218.44
2022-08-11T00:20:11.758Z,21218.44
2022-08-11T00:22:23.429Z,21234.72
2022-08-11T00:24:55.946Z,21198.13
2022-08-11T00:27:36.174Z,21216.41
2022-08-11T00:30:06.539Z,21212.34
2022-08-11T00:32:36.445Z,21236.75
2022-08-11T00:35:53.802Z,21194.06
2022-08-11T00:37:58.425Z,21179.81
2022-08-11T00:40:39.085Z,21200.16
2022-08-11T00:43:24.912Z,21190.00
2022-08-11T00:46:22.979Z,21183.88
2022-08-11T00:49:11.931Z,21173.72
2022-08-11T00:52:05.818Z,21155.44
2022-08-11T00:55:08.430Z,21141.19
2022-08-11T00:58:29.389Z,21137.13
2022-08-11T01:01:11.500Z,21137.13
2022-08-11T01:04:29.106Z,21155.44
2022-08-11T01:08:01.099Z,21139.16
2022-08-11T01:11:20.515Z,21102.56
2022-08-11T01:14:35.712Z,21106.63
2022-08-11T01:18:01.323Z,21082.25
2022-08-11T01:21:39.879Z,21078.16
2022-08-11T01:25:07.322Z,21088.34
2022-08-11T01:28:29.407Z,21092.41
2022-08-11T01:32:00.852Z,21057.84
2022-08-11T01:35:32.562Z,21033.44
2022-08-11T01:38:56.970Z,21049.72
2022-08-11T01:42:09.892Z,21082.25
2022-08-11T01:45:11.281Z,21065.97
2022-08-11T01:47:53.760Z,21027.34
2022-08-11T01:50:49.510Z,21007.00
2022-08-11T01:53:32.117Z,21037.50
2022-08-11T01:56:23.265Z,21027.34
2022-08-11T01:59:05.035Z,21057.84
2022-08-11T02:01:53.280Z,21015.16
2022-08-11T02:04:34.869Z,21009.03
2022-08-11T02:07:18.983Z,21031.41
2022-08-11T02:10:26.869Z,21009.03
2022-08-11T02:13:19.368Z,20933.81
2022-08-11T02:16:18.842Z,20974.50
2022-08-11T02:19:13.817Z,20984.66
2022-08-11T02:22:09.755Z,20960.25
2022-08-11T02:24:50.644Z,20966.34
2022-08-11T02:27:27.821Z,20923.66
2022-08-11T02:30:07.260Z,20964.31
2022-08-11T02:33:24.446Z,20946.03
2022-08-11T02:36:09.369Z,20937.91
2022-08-11T02:38:56.031Z,20941.97
2022-08-11T02:41:58.288Z,20939.94
2022-08-11T02:44:49.130Z,20946.03
2022-08-11T02:47:40.657Z,20915.53
2022-08-11T02:50:23.048Z,20913.50
2022-08-11T02:53:02.705Z,20880.97
2022-08-11T02:55:57.410Z,20919.59
2022-08-11T02:58:39.210Z,20901.31
2022-08-11T03:01:24.484Z,20927.72
2022-08-11T03:04:04.548Z,20919.59
2022-08-11T03:06:45.643Z,20913.50
2022-08-11T03:09:26.228Z,20868.78
2022-08-11T03:12:24.331Z,20856.56
2022-08-11T03:15:20.528Z,20874.88
2022-08-11T03:18:07.753Z,20854.53
2022-08-11T03:20:47.615Z,20848.44
2022-08-11T03:23:28.332Z,20842.34
2022-08-11T03:26:06.958Z,20874.88
2022-08-11T03:28:46.173Z,20852.50
2022-08-11T03:31:26.793Z,20860.66
2022-08-11T03:34:06.664Z,20815.91
2022-08-11T03:37:36.959Z,20862.69
2022-08-11T03:40:41.211Z,20815.91
2022-08-11T03:43:35.176Z,20828.13
2022-08-11T03:46:15.813Z,20811.84
2022-08-11T03:49:02.732Z,20840.31
2022-08-11T03:51:51.476Z,20801.69
2022-08-11T03:54:39.451Z,20785.44
2022-08-11T03:58:00.556Z,20838.28
2022-08-11T04:01:03.025Z,20838.28
2022-08-11T04:04:19.658Z,20862.69
2022-08-11T04:07:46.000Z,20897.25
2022-08-11T04:11:00.506Z,20872.84
2022-08-11T04:14:37.435Z,20795.59
2022-08-11T04:17:54.098Z,20850.47
2022-08-11T04:20:54.688Z,20840.31
2022-08-11T04:24:37.230Z,20864.72
2022-08-11T04:27:43.935Z,20860.66
2022-08-11T04:30:18.870Z,20844.38
2022-08-11T04:33:35.073Z,20854.53
2022-08-11T04:36:56.408Z,20883.00
2022-08-11T04:39:51.498Z,20846.41
2022-08-11T04:43:22.292Z,20895.19
2022-08-11T04:46:22.972Z,20832.19
2022-08-11T04:49:46.799Z,20925.69
2022-08-11T04:53:00.922Z,20909.44
2022-08-11T04:56:16.001Z,20941.97
2022-08-11T04:59:30.129Z,20956.19
2022-08-11T05:02:53.939Z,21009.03
2022-08-11T05:05:36.283Z,21029.38
2022-08-11T05:08:54.315Z,21161.53
2022-08-11T05:12:20.059Z,21350.59
2022-08-11T05:15:10.183Z,21551.91
2022-08-11T05:18:14.469Z,21690.16
2022-08-11T05:21:09.546Z,21659.66
2022-08-11T05:24:04.687Z,21602.72
2022-08-11T05:27:09.946Z,21566.13
2022-08-11T05:30:03.495Z,21523.44
2022-08-11T05:33:01.395Z,21519.34
2022-08-11T05:36:00.005Z,21533.59
2022-08-11T05:38:52.655Z,21513.25
2022-08-11T05:41:42.803Z,21578.31
2022-08-11T05:44:37.070Z,21600.69
2022-08-11T05:47:24.362Z,21551.91
2022-08-11T05:50:13.792Z,21553.94
2022-08-11T05:53:09.094Z,21633.22
2022-08-11T05:56:03.038Z,21677.97
2022-08-11T05:58:41.739Z,21669.81
2022-08-11T06:01:14.999Z,21724.72
2022-08-11T06:04:15.990Z,21712.53
2022-08-11T06:07:00.497Z,21749.13
2022-08-11T06:09:33.714Z,21765.38
2022-08-11T06:12:08.412Z,21749.13
2022-08-11T06:14:44.355Z,21775.56
2022-08-11T06:17:14.747Z,21789.78
2022-08-11T06:19:49.408Z,21806.06
2022-08-11T06:22:23.398Z,21814.19
2022-08-11T06:24:59.798Z,21789.78
2022-08-11T06:27:32.640Z,21863.00
2022-08-11T06:30:02.892Z,21891.47
2022-08-11T06:32:37.034Z,21863.00
2022-08-11T06:35:18.666Z,21875.19
2022-08-11T06:38:09.082Z,21911.78
2022-08-11T06:41:09.458Z,21891.47
2022-08-11T06:43:55.434Z,21917.91
2022-08-11T06:46:31.682Z,21911.78
2022-08-11T06:49:03.926Z,21956.53
2022-08-11T06:51:34.277Z,21936.19
2022-08-11T06:54:05.716Z,21938.22
2022-08-11T06:57:26.267Z,21964.66
2022-08-11T07:00:04.270Z,21976.88
2022-08-11T07:02:38.527Z,21972.81
2022-08-11T07:05:17.476Z,21997.19
2022-08-11T07:08:51.977Z,21980.94
2022-08-11T07:12:18.071Z,21974.84
2022-08-11T07:15:11.387Z,21993.13
2022-08-11T07:17:49.825Z,21974.84
2022-08-11T07:20:37.496Z,21958.56
2022-08-11T07:23:28.309Z,21976.88
2022-08-11T07:26:19.210Z,22009.41
2022-08-11T07:28:58.534Z,22001.28
2022-08-11T07:31:36.185Z,22017.53
2022-08-11T07:34:20.679Z,22029.75
2022-08-11T07:36:54.638Z,22048.03
2022-08-11T07:39:26.659Z,22111.09
2022-08-11T07:41:58.503Z,22090.75
2022-08-11T07:44:34.615Z,22068.38
2022-08-11T07:47:21.332Z,22076.50
2022-08-11T07:50:11.282Z,22088.72
2022-08-11T07:52:41.629Z,22131.41
2022-08-11T07:55:16.798Z,22145.66
2022-08-11T07:58:19.174Z,22127.34
2022-08-11T08:01:21.339Z,22159.88
2022-08-11T08:04:09.766Z,22161.91
2022-08-11T08:06:57.954Z,22168.03
2022-08-11T08:09:46.205Z,22196.50
2022-08-11T08:12:35.657Z,22255.47
2022-08-11T08:15:28.275Z,22263.59
2022-08-11T08:18:09.952Z,22273.78
2022-08-11T08:20:50.830Z,22257.50
2022-08-11T08:23:33.043Z,22328.69
2022-08-11T08:26:27.803Z,22351.03
2022-08-11T08:29:19.295Z,22361.22
2022-08-11T08:31:48.596Z,22369.34
2022-08-11T08:34:17.776Z,22369.34
2022-08-11T08:36:49.149Z,22420.19
2022-08-11T08:39:21.743Z,22410.03
2022-08-11T08:41:56.415Z,22416.13
2022-08-11T08:44:43.566Z,22483.25
2022-08-11T08:47:43.060Z,22499.50
2022-08-11T08:50:16.899Z,22519.84
2022-08-11T08:52:55.418Z,22505.59
2022-08-11T08:55:24.303Z,22509.69
2022-08-11T08:58:00.579Z,22550.34
2022-08-11T09:00:41.255Z,22599.16
2022-08-11T09:03:39.120Z,22570.69
2022-08-11T09:05:59.584Z,22603.22
2022-08-11T09:08:29.443Z,22676.44
2022-08-11T09:11:16.910Z,22672.38
2022-08-11T09:14:03.170Z,22696.78
2022-08-11T09:16:35.917Z,22696.78
2022-08-11T09:19:05.350Z,22713.06
2022-08-11T09:21:45.405Z,22696.78
2022-08-11T09:24:36.654Z,22702.88
2022-08-11T09:27:08.457Z,22749.66
2022-08-11T09:29:40.046Z,22772.03
2022-08-11T09:32:08.929Z,22839.16
2022-08-11T09:34:39.642Z,22835.09
2022-08-11T09:37:28.544Z,22881.88
2022-08-11T09:40:33.730Z,22845.25
2022-08-11T09:43:25.255Z,22810.69
2022-08-11T09:45:58.563Z,22831.03
2022-08-11T09:48:30.093Z,22879.84
2022-08-11T09:51:01.471Z,22826.97
2022-08-11T09:53:40.846Z,22847.28
2022-08-11T09:56:33.459Z,22885.94
2022-08-11T09:59:04.418Z,22928.66
2022-08-11T10:01:42.288Z,22985.59
2022-08-11T10:04:18.642Z,23016.13
2022-08-11T10:07:05.415Z,23079.19
2022-08-11T10:09:45.057Z,23162.56
2022-08-11T10:12:20.973Z,23184.94
2022-08-11T10:15:14.226Z,23203.25
2022-08-11T10:18:04.628Z,23274.44
2022-08-11T10:20:37.847Z,23217.50
2022-08-11T10:23:24.096Z,23223.59
2022-08-11T10:26:16.106Z,23211.38
2022-08-11T10:29:09.991Z,23152.41
2022-08-11T10:31:59.382Z,23184.94
2022-08-11T10:34:54.560Z,23087.31
2022-08-11T10:38:15.965Z,23071.03
2022-08-11T10:40:18.156Z,23099.50
2022-08-11T10:43:05.542Z,23071.03
2022-08-11T10:45:55.202Z,23107.66
2022-08-11T10:48:26.115Z,23066.97
2022-08-11T10:51:17.203Z,23095.44
2022-08-11T10:54:24.111Z,23136.13
2022-08-11T10:57:12.680Z,23136.13
2022-08-11T10:59:43.387Z,23107.66
2022-08-11T11:02:16.117Z,23099.50
2022-08-11T11:05:03.399Z,23119.84
2022-08-11T11:07:48.698Z,23174.78
2022-08-11T11:10:17.651Z,23248.00
2022-08-11T11:13:18.493Z,23221.56
2022-08-11T11:16:06.724Z,23217.50
2022-08-11T11:18:39.040Z,23264.28
2022-08-11T11:21:09.867Z,23278.50
2022-08-11T11:23:53.183Z,23335.47
2022-08-11T11:26:39.397Z,23270.38
2022-08-11T11:29:41.513Z,23290.72
2022-08-11T11:32:28.554Z,23274.44
2022-08-11T11:35:18.250Z,23264.28
2022-08-11T11:37:56.128Z,23211.38
2022-08-11T11:40:35.280Z,23282.59
2022-08-11T11:43:05.131Z,23292.75
2022-08-11T11:45:33.356Z,23215.47
2022-08-11T11:48:03.440Z,23258.19
2022-08-11T11:50:34.435Z,23274.44
2022-08-11T11:53:09.078Z,23307.00
2022-08-11T11:55:39.256Z,23302.94
2022-08-11T11:58:26.286Z,23323.28
2022-08-11T12:01:15.704Z,23286.66
2022-08-11T12:03:47.912Z,23335.47
2022-08-11T12:06:17.977Z,23329.38
2022-08-11T12:08:50.425Z,23286.66
2022-08-11T12:11:40.342Z,23276.47
2022-08-11T12:14:13.783Z,23321.22
2022-08-11T12:16:45.073Z,23264.28
2022-08-11T12:19:15.642Z,23302.94
2022-08-11T12:22:00.520Z,23321.22
2022-08-11T12:24:49.057Z,23359.88
2022-08-11T12:27:24.094Z,23363.94
2022-08-11T12:29:58.125Z,23343.63
2022-08-11T12:32:31.049Z,23368.03
2022-08-11T12:34:59.752Z,23351.75
2022-08-11T12:37:33.749Z,23384.28
2022-08-11T12:40:50.105Z,23388.38
2022-08-11T12:43:39.507Z,23388.38
2022-08-11T12:46:18.212Z,23363.94
2022-08-11T12:49:07.781Z,23351.75
2022-08-11T12:52:13.340Z,23378.19
2022-08-11T12:54:52.643Z,23382.25
2022-08-11T12:57:48.011Z,23372.09
2022-08-11T13:00:37.410Z,23363.94
2022-08-11T13:03:26.715Z,23370.06
2022-08-11T13:05:58.717Z,23396.50
2022-08-11T13:08:30.277Z,23410.75
2022-08-11T13:11:19.305Z,23412.78
2022-08-11T13:13:52.797Z,23445.31
2022-08-11T13:16:30.002Z,23457.53
2022-08-11T13:19:01.056Z,23461.59
2022-08-11T13:21:30.735Z,23471.78
2022-08-11T13:24:03.093Z,23510.41
2022-08-11T13:26:47.595Z,23483.97
2022-08-11T13:29:20.808Z,23534.84
2022-08-11T13:31:51.874Z,23424.97
2022-08-11T13:34:22.217Z,23449.38
2022-08-11T13:36:53.673Z,23469.72
2022-08-11T13:39:25.067Z,23431.09
2022-08-11T13:41:57.194Z,23445.31
2022-08-11T13:44:29.844Z,23429.03
2022-08-11T13:47:04.003Z,23471.78
2022-08-11T13:49:34.682Z,23441.25
2022-08-11T13:52:05.402Z,23508.38
2022-08-11T13:54:38.384Z,23498.22
2022-08-11T13:57:13.642Z,23481.94
2022-08-11T14:00:15.849Z,23402.59
2022-08-11T14:02:59.294Z,23473.81
2022-08-11T14:05:30.321Z,23522.63
2022-08-11T14:08:03.619Z,23516.53
2022-08-11T14:10:34.746Z,23534.84
2022-08-11T14:13:27.216Z,23483.97
2022-08-11T14:16:02.056Z,23510.41
2022-08-11T14:18:34.651Z,23435.16
2022-08-11T14:21:24.165Z,23433.13
2022-08-11T14:23:59.283Z,23376.16
2022-08-11T14:26:31.695Z,23368.03
2022-08-11T14:29:03.744Z,23449.38
2022-08-11T14:31:35.163Z,23439.22
2022-08-11T14:34:10.453Z,23447.34
2022-08-11T14:36:41.592Z,23465.66
2022-08-11T14:39:12.918Z,23469.72
2022-08-11T14:42:12.519Z,23443.28
2022-08-11T14:45:02.650Z,23431.09
2022-08-11T14:47:34.644Z,23457.53
2022-08-11T14:50:11.409Z,23386.34
2022-08-11T14:52:49.180Z,23402.59
2022-08-11T14:55:36.566Z,23412.78
2022-08-11T14:58:06.380Z,23376.16
2022-08-11T15:00:35.915Z,23380.22
2022-08-11T15:03:12.602Z,23443.28
2022-08-11T15:05:56.494Z,23488.03
2022-08-11T15:08:48.630Z,23451.44
2022-08-11T15:11:37.904Z,23408.72
2022-08-11T15:14:09.806Z,23404.63
2022-08-11T15:16:59.734Z,23345.66
2022-08-11T15:19:40.534Z,23410.75
2022-08-11T15:22:29.240Z,23341.56
2022-08-11T15:25:00.227Z,23355.81
2022-08-11T15:27:51.632Z,23323.28
2022-08-11T15:30:40.107Z,23276.47
2022-08-11T15:33:29.624Z,23282.59
2022-08-11T15:36:18.530Z,23315.13
2022-08-11T15:39:01.623Z,23307.00
2022-08-11T15:41:58.806Z,23282.59
2022-08-11T15:45:03.890Z,23327.34
2022-08-11T15:47:41.808Z,23313.09
2022-08-11T15:50:16.624Z,23300.91
2022-08-11T15:52:53.539Z,23237.84
2022-08-11T15:55:25.688Z,23286.66
2022-08-11T15:58:14.435Z,23252.06
2022-08-11T16:01:08.881Z,23266.31
2022-08-11T16:04:07.710Z,23233.75
2022-08-11T16:06:47.862Z,23272.41
2022-08-11T16:09:24.804Z,23248.00
2022-08-11T16:12:04.868Z,23193.09
2022-08-11T16:14:56.547Z,23213.44
2022-08-11T16:17:31.764Z,23189.00
2022-08-11T16:20:03.659Z,23182.91
2022-08-11T16:22:39.196Z,23178.84
2022-08-11T16:27:06.118Z,23254.09
2022-08-11T16:28:07.110Z,23180.88
2022-08-11T16:30:43.102Z,23144.25
2022-08-11T16:33:22.744Z,23138.16
2022-08-11T16:36:21.661Z,23191.06
2022-08-11T16:38:52.131Z,23103.59
2022-08-11T16:41:38.056Z,23130.03
2022-08-11T16:44:37.270Z,23107.66
2022-08-11T16:47:11.632Z,23087.31
2022-08-11T16:49:52.483Z,23113.75
2022-08-11T16:52:23.861Z,23075.09
2022-08-11T16:54:52.982Z,23071.03
2022-08-11T16:57:43.251Z,23103.59
2022-08-11T17:00:18.085Z,23164.59
2022-08-11T17:03:08.833Z,23189.00
2022-08-11T17:06:00.659Z,23123.94
2022-08-11T17:08:57.112Z,23119.84
2022-08-11T17:11:47.632Z,23089.34
2022-08-11T17:14:35.292Z,23095.44
2022-08-11T17:17:12.759Z,23062.91
2022-08-11T17:20:42.953Z,22997.81
2022-08-11T17:22:56.297Z,23012.06
2022-08-11T17:25:29.252Z,23005.94
2022-08-11T17:28:00.717Z,23042.56
2022-08-11T17:30:46.991Z,22944.94
2022-08-11T17:33:35.141Z,22892.03
2022-08-11T17:36:05.371Z,22914.41
2022-08-11T17:38:34.525Z,22867.63
2022-08-11T17:41:23.939Z,22806.63
2022-08-11T17:44:13.805Z,22857.47
2022-08-11T17:47:05.355Z,22847.28
2022-08-11T17:49:39.445Z,22812.72
2022-08-11T17:52:30.668Z,22774.06
2022-08-11T17:55:50.969Z,22765.94
2022-08-11T17:58:26.974Z,22770.00
2022-08-11T18:00:57.876Z,22684.59
2022-08-11T18:03:32.461Z,22664.25
2022-08-11T18:06:05.511Z,22650.00
2022-08-11T18:08:56.417Z,22615.44
2022-08-11T18:12:11.062Z,22574.75
2022-08-11T18:14:55.258Z,22562.56
2022-08-11T18:17:41.377Z,22586.97
2022-08-11T18:20:28.201Z,22515.78
2022-08-11T18:23:17.804Z,22509.69
2022-08-11T18:26:07.664Z,22479.16
2022-08-11T18:29:03.792Z,22436.47
2022-08-11T18:31:54.434Z,22438.50
2022-08-11T18:34:49.165Z,22462.91
2022-08-11T18:37:42.898Z,22387.66
2022-08-11T18:40:37.224Z,22367.31
2022-08-11T18:43:27.962Z,22302.25
2022-08-11T18:46:20.646Z,22271.72
2022-08-11T18:49:15.878Z,22285.97
2022-08-11T18:52:08.115Z,22277.84
2022-08-11T18:54:59.725Z,22273.78
2022-08-11T18:57:49.798Z,22241.22
2022-08-11T19:00:41.955Z,22251.41
2022-08-11T19:03:31.018Z,22202.59
2022-08-11T19:06:38.198Z,22182.25
2022-08-11T19:09:32.063Z,22172.09
2022-08-11T19:12:19.972Z,22145.66
2022-08-11T19:15:09.550Z,22119.22
2022-08-11T19:17:59.001Z,22174.13
2022-08-11T19:20:49.790Z,22113.13
2022-08-11T19:23:43.732Z,22086.69
2022-08-11T19:26:30.317Z,22092.78
2022-08-11T19:30:06.967Z,22074.47
2022-08-11T19:32:28.254Z,22048.03
2022-08-11T19:35:18.101Z,22050.06
2022-08-11T19:38:05.156Z,22062.28
2022-08-11T19:40:52.059Z,22058.22
2022-08-11T19:43:38.711Z,22017.53
2022-08-11T19:46:26.094Z,22009.41
2022-08-11T19:49:15.659Z,22017.53
2022-08-11T19:52:03.330Z,21997.19
2022-08-11T19:54:52.881Z,22021.59
2022-08-11T19:57:42.109Z,21954.50
2022-08-11T20:00:33.436Z,21946.38
2022-08-11T20:03:23.484Z,21946.38
2022-08-11T20:06:11.561Z,21952.47
2022-08-11T20:09:02.044Z,21940.25
2022-08-11T20:11:52.253Z,21907.72
2022-08-11T20:14:43.083Z,21905.69
2022-08-11T20:17:32.371Z,21865.03
2022-08-11T20:20:22.132Z,21856.91
2022-08-11T20:23:13.526Z,21909.75
2022-08-11T20:26:14.032Z,21893.50
2022-08-11T20:29:07.027Z,21873.16
2022-08-11T20:31:54.824Z,21850.78
2022-08-11T20:34:41.063Z,21863.00
2022-08-11T20:37:27.348Z,21818.25
2022-08-11T20:40:17.584Z,21842.66
2022-08-11T20:44:06.874Z,21842.66
2022-08-11T20:46:18.064Z,21769.47
2022-08-11T20:49:06.551Z,21761.31
2022-08-11T20:51:54.819Z,21781.66
2022-08-11T20:54:44.699Z,21751.16
2022-08-11T20:57:35.632Z,21767.44
2022-08-11T21:00:40.463Z,21736.94
2022-08-11T21:03:35.509Z,21749.13
2022-08-11T21:06:31.363Z,21722.69
2022-08-11T21:09:21.074Z,21732.84
2022-08-11T21:12:14.317Z,21700.31
2022-08-11T21:15:04.960Z,21686.09
2022-08-11T21:18:06.733Z,21665.75
2022-08-11T21:21:00.184Z,21686.09
2022-08-11T21:23:50.491Z,21657.63
2022-08-11T21:26:39.180Z,21647.47
2022-08-11T21:29:27.603Z,21645.44
2022-08-11T21:32:16.146Z,21619.00
2022-08-11T21:35:04.280Z,21610.84
2022-08-11T21:37:50.683Z,21659.66
2022-08-11T21:40:40.381Z,21592.56
2022-08-11T21:43:28.538Z,21619.00
2022-08-11T21:46:16.962Z,21602.72
2022-08-11T21:49:05.571Z,21606.78
2022-08-11T21:51:51.518Z,21582.38
2022-08-11T21:54:38.617Z,21570.19
2022-08-11T21:57:26.017Z,21551.91
2022-08-11T22:00:16.660Z,21555.97
2022-08-11T22:03:05.531Z,21574.25
2022-08-11T22:05:55.372Z,21555.97
2022-08-11T22:08:41.115Z,21570.19
2022-08-11T22:11:32.184Z,21543.75
2022-08-11T22:14:18.914Z,21566.13
2022-08-11T22:17:04.663Z,21509.19
2022-08-11T22:19:52.728Z,21537.66
2022-08-11T22:22:52.255Z,21519.34
2022-08-11T22:25:50.830Z,21488.88
2022-08-11T22:28:37.723Z,21448.19
2022-08-11T22:31:25.282Z,21480.72
2022-08-11T22:34:11.012Z,21450.22
2022-08-11T22:36:59.322Z,21460.41
2022-08-11T22:40:02.339Z,21464.47
2022-08-11T22:42:49.493Z,21450.22
2022-08-11T22:45:35.516Z,21403.47
2022-08-11T22:48:23.690Z,21446.16
2022-08-11T22:51:10.759Z,21403.47
2022-08-11T22:53:59.483Z,21433.97
2022-08-11T22:56:49.345Z,21397.38
2022-08-11T22:59:37.223Z,21440.06
2022-08-11T23:02:25.222Z,21423.81
2022-08-11T23:05:11.872Z,21395.34
2022-08-11T23:07:59.618Z,21395.34
2022-08-11T23:10:46.412Z,21397.38
2022-08-11T23:13:34.518Z,21366.88
2022-08-11T23:16:21.425Z,21383.13
2022-08-11T23:19:08.853Z,21346.53
2022-08-11T23:21:56.520Z,21352.63
2022-08-11T23:24:44.455Z,21352.63
2022-08-11T23:27:32.405Z,21309.94
2022-08-11T23:30:20.283Z,21307.91
2022-08-11T23:33:12.670Z,21295.72
2022-08-11T23:36:05.344Z,21299.78
2022-08-11T23:38:52.608Z,21283.50
2022-08-11T23:41:39.382Z,21305.88
2022-08-11T23:44:27.026Z,21328.25
2022-08-11T23:47:18.184Z,21316.03
2022-08-11T23:50:06.425Z,21299.78
2022-08-11T23:52:54.224Z,21269.28
2022-08-11T23:55:40.560Z,21271.31
2022-08-11T23:58:27.706Z,21253.00
